KBWD/BWD METAR and TAF weather

Enter ICAO airport designator
Station Type Date Time Source
KBWD METAR 2018/04/26 15:15 UTC NOAA

KBWD 261515Z AUTO 00000KT 10SM CLR 14/08 A3007 RMK AO2


Station Type Date Time Source
KBWD Decoded METAR 2018/04/26 15:15 UTC NOAA

Brownwood, Brownwood Regional Airport, TX, United States (KBWD) 31-48N 098-57W
Apr 26, 2018 - 11:15 AM EDT / 2018.04.26 1515 UTC
Wind: Calm:0
Visibility: 10 mile(s):0
Sky conditions: clear
Temperature: 57 F (14 C)
Dew Point: 46 F (8 C)
Relative Humidity: 67%
Pressure (altimeter): 30.07 in. Hg (1018 hPa)
ob: KBWD 261515Z AUTO 00000KT 10SM CLR 14/08 A3007 RMK AO2
cycle: 15

Station Type Date Time Source
KBWD TAF UTC NOAA

Error!


Example: see airport list